createdAt,value
2018-08-06T00:00:05.348Z,51.7
2018-08-06T00:15:04.380Z,51.7
2018-08-06T00:30:04.812Z,51.8
2018-08-06T00:45:05.153Z,51.6
2018-08-06T01:00:04.863Z,52.7
2018-08-06T01:15:05.013Z,52.9
2018-08-06T01:30:04.857Z,53.5
2018-08-06T01:45:04.957Z,54.3
2018-08-06T02:00:04.597Z,54.8
2018-08-06T02:15:05.136Z,55
2018-08-06T02:30:04.330Z,55.4
2018-08-06T02:45:05.476Z,55.9
2018-08-06T03:00:09.591Z,56.2
2018-08-06T03:15:05.533Z,56.4
2018-08-06T03:30:05.321Z,56.7
2018-08-06T03:45:05.420Z,57.2
2018-08-06T04:00:04.575Z,57.7
2018-08-06T04:15:04.685Z,57.6
2018-08-06T04:30:04.573Z,58.1
2018-08-06T04:45:05.235Z,58
2018-08-06T05:00:04.727Z,58.9
2018-08-06T05:15:05.351Z,58.6
2018-08-06T05:30:05.060Z,59.1
2018-08-06T05:45:04.989Z,59.4
2018-08-06T06:00:04.905Z,59.3
2018-08-06T06:15:04.265Z,59
2018-08-06T06:30:05.009Z,58.5
2018-08-06T06:45:04.863Z,57.8
2018-08-06T07:00:09.434Z,57.6
2018-08-06T07:15:04.821Z,57
2018-08-06T07:30:04.953Z,56.3
2018-08-06T07:45:04.539Z,56.9
2018-08-06T08:00:05.221Z,58.1
2018-08-06T08:15:04.659Z,59
2018-08-06T08:30:04.841Z,58
2018-08-06T08:45:04.795Z,54.9
2018-08-06T09:00:04.742Z,52.7
2018-08-06T09:15:04.746Z,51.8
2018-08-06T09:30:09.935Z,50.9
2018-08-06T09:45:04.843Z,46.3
2018-08-06T10:00:04.266Z,46.6
2018-08-06T10:15:05.364Z,47.2
2018-08-06T10:30:05.210Z,47.7
2018-08-06T10:45:04.304Z,48.1
2018-08-06T11:00:05.258Z,48.4
2018-08-06T11:15:04.739Z,48.3
2018-08-06T11:30:05.020Z,48.5
2018-08-06T11:45:04.420Z,48.4
2018-08-06T12:00:05.069Z,47.8
2018-08-06T12:15:04.995Z,48.2
2018-08-06T12:30:04.979Z,47.5
2018-08-06T12:45:04.617Z,47.9
2018-08-06T13:00:05.110Z,47.6
2018-08-06T13:15:04.414Z,46.8
2018-08-06T13:30:04.872Z,46.9
2018-08-06T13:45:04.866Z,46.9
2018-08-06T14:00:04.358Z,46.7
2018-08-06T14:15:04.359Z,46.6
2018-08-06T14:30:04.901Z,46.1
2018-08-06T14:45:04.370Z,46.2
2018-08-06T15:00:04.327Z,46.3
2018-08-06T15:15:05.112Z,45.8
2018-08-06T15:30:04.843Z,46
2018-08-06T15:45:04.600Z,46
2018-08-06T16:00:05.452Z,46.4
2018-08-06T16:15:05.051Z,47
2018-08-06T16:30:05.457Z,47.3
2018-08-06T16:45:05.089Z,47.2
2018-08-06T17:00:05.325Z,47.5
2018-08-06T17:15:05.420Z,46.6
2018-08-06T17:30:04.910Z,45.8
2018-08-06T17:45:05.016Z,45.7
2018-08-06T18:00:04.482Z,46
2018-08-06T18:15:04.562Z,46.2
2018-08-06T18:30:04.677Z,46.9
2018-08-06T18:45:05.383Z,46.8
2018-08-06T19:00:04.570Z,47.2
2018-08-06T19:15:04.788Z,47.5
2018-08-06T19:30:04.869Z,47.7
2018-08-06T19:45:05.464Z,48.4
2018-08-06T20:00:04.975Z,48.7
2018-08-06T20:15:04.739Z,49.1
2018-08-06T20:30:04.531Z,49.7
2018-08-06T20:45:05.377Z,50.1
2018-08-06T21:00:04.729Z,50.6
2018-08-06T21:15:06.729Z,50.8
2018-08-06T21:30:05.220Z,51.2
2018-08-06T21:45:06.750Z,51.5
2018-08-06T22:00:04.474Z,52
2018-08-06T22:15:04.888Z,52.3
2018-08-06T22:30:05.531Z,52.5
2018-08-06T22:45:04.745Z,52.8
2018-08-06T23:00:05.701Z,52.8
2018-08-06T23:15:04.623Z,53.2
2018-08-06T23:30:05.324Z,53.4
2018-08-06T23:45:04.518Z,53.4
